sensor_id;sensor_type;location;lat;lon;timestamp;temperature;humidity
316;DHT22;14128;48.686;9.738;2023-08-17T00:00:56;17.50;1.40
316;DHT22;14128;48.686;9.738;2023-08-17T00:03:23;17.50;1.40
316;DHT22;14128;48.686;9.738;2023-08-17T00:05:50;17.50;1.40
316;DHT22;14128;48.686;9.738;2023-08-17T00:08:16;17.40;1.40
316;DHT22;14128;48.686;9.738;2023-08-17T00:10:43;17.30;1.40
316;DHT22;14128;48.686;9.738;2023-08-17T00:13:10;17.30;1.40
316;DHT22;14128;48.686;9.738;2023-08-17T00:15:37;17.30;1.40
316;DHT22;14128;48.686;9.738;2023-08-17T00:18:05;17.20;1.40
316;DHT22;14128;48.686;9.738;2023-08-17T00:20:32;17.20;1.40
316;DHT22;14128;48.686;9.738;2023-08-17T00:22:59;17.20;1.40
316;DHT22;14128;48.686;9.738;2023-08-17T00:25:26;17.10;1.40
316;DHT22;14128;48.686;9.738;2023-08-17T00:27:53;17.10;1.40
316;DHT22;14128;48.686;9.738;2023-08-17T00:30:20;17.10;1.40
316;DHT22;14128;48.686;9.738;2023-08-17T00:32:47;17.10;1.40
316;DHT22;14128;48.686;9.738;2023-08-17T00:35:15;17.10;1.40
316;DHT22;14128;48.686;9.738;2023-08-17T00:37:42;17.10;1.40
316;DHT22;14128;48.686;9.738;2023-08-17T00:40:10;17.10;1.40
316;DHT22;14128;48.686;9.738;2023-08-17T00:42:37;17.10;1.40
316;DHT22;14128;48.686;9.738;2023-08-17T00:45:05;17.00;1.40
316;DHT22;14128;48.686;9.738;2023-08-17T00:47:32;17.00;1.40
316;DHT22;14128;48.686;9.738;2023-08-17T00:49:59;17.00;1.40
316;DHT22;14128;48.686;9.738;2023-08-17T00:52:28;16.90;1.40
316;DHT22;14128;48.686;9.738;2023-08-17T00:54:55;16.90;1.40
316;DHT22;14128;48.686;9.738;2023-08-17T00:57:23;16.80;1.40
316;DHT22;14128;48.686;9.738;2023-08-17T00:59:50;16.70;1.40
316;DHT22;14128;48.686;9.738;2023-08-17T01:02:18;16.70;1.40
316;DHT22;14128;48.686;9.738;2023-08-17T01:04:45;16.70;1.40
316;DHT22;14128;48.686;9.738;2023-08-17T01:07:12;16.60;1.40
316;DHT22;14128;48.686;9.738;2023-08-17T01:09:40;16.70;1.40
316;DHT22;14128;48.686;9.738;2023-08-17T01:12:23;16.60;1.40
316;DHT22;14128;48.686;9.738;2023-08-17T01:14:59;16.60;1.40
316;DHT22;14128;48.686;9.738;2023-08-17T01:17:30;16.50;1.40
316;DHT22;14128;48.686;9.738;2023-08-17T01:20:00;16.50;1.40
316;DHT22;14128;48.686;9.738;2023-08-17T01:22:30;16.50;1.40
316;DHT22;14128;48.686;9.738;2023-08-17T01:25:03;16.40;1.40
316;DHT22;14128;48.686;9.738;2023-08-17T01:27:39;16.40;1.40
316;DHT22;14128;48.686;9.738;2023-08-17T01:30:07;16.40;1.40
316;DHT22;14128;48.686;9.738;2023-08-17T01:32:39;16.30;1.40
316;DHT22;14128;48.686;9.738;2023-08-17T01:35:14;16.30;1.40
316;DHT22;14128;48.686;9.738;2023-08-17T01:37:43;16.20;1.40
316;DHT22;14128;48.686;9.738;2023-08-17T01:40:12;16.20;1.40
316;DHT22;14128;48.686;9.738;2023-08-17T01:42:41;16.20;1.40
316;DHT22;14128;48.686;9.738;2023-08-17T01:45:10;16.20;1.40
316;DHT22;14128;48.686;9.738;2023-08-17T01:47:37;16.10;1.40
316;DHT22;14128;48.686;9.738;2023-08-17T01:50:05;16.10;1.40
316;DHT22;14128;48.686;9.738;2023-08-17T01:52:32;16.00;1.40
316;DHT22;14128;48.686;9.738;2023-08-17T01:54:59;16.10;1.40
316;DHT22;14128;48.686;9.738;2023-08-17T01:57:27;16.00;1.40
316;DHT22;14128;48.686;9.738;2023-08-17T01:59:54;16.00;1.40
316;DHT22;14128;48.686;9.738;2023-08-17T02:02:20;16.00;1.40
316;DHT22;14128;48.686;9.738;2023-08-17T02:04:48;16.00;1.40
316;DHT22;14128;48.686;9.738;2023-08-17T02:07:14;16.00;1.40
316;DHT22;14128;48.686;9.738;2023-08-17T02:09:41;16.00;1.40
316;DHT22;14128;48.686;9.738;2023-08-17T02:12:08;15.90;1.40
316;DHT22;14128;48.686;9.738;2023-08-17T02:14:37;15.90;1.40
316;DHT22;14128;48.686;9.738;2023-08-17T02:17:03;15.90;1.40
316;DHT22;14128;48.686;9.738;2023-08-17T02:19:31;15.90;1.40
316;DHT22;14128;48.686;9.738;2023-08-17T02:21:59;15.90;1.40
316;DHT22;14128;48.686;9.738;2023-08-17T02:24:26;15.80;1.40
316;DHT22;14128;48.686;9.738;2023-08-17T02:26:53;15.80;1.40
316;DHT22;14128;48.686;9.738;2023-08-17T02:29:20;15.80;1.40
316;DHT22;14128;48.686;9.738;2023-08-17T02:31:48;15.80;1.40
316;DHT22;14128;48.686;9.738;2023-08-17T02:34:15;15.80;1.40
316;DHT22;14128;48.686;9.738;2023-08-17T02:36:42;15.80;1.40
316;DHT22;14128;48.686;9.738;2023-08-17T02:39:08;15.70;1.40
316;DHT22;14128;48.686;9.738;2023-08-17T02:41:35;15.70;1.40
316;DHT22;14128;48.686;9.738;2023-08-17T02:44:02;15.70;1.40
316;DHT22;14128;48.686;9.738;2023-08-17T02:46:29;15.70;1.40
316;DHT22;14128;48.686;9.738;2023-08-17T02:48:58;15.60;1.40
316;DHT22;14128;48.686;9.738;2023-08-17T02:51:24;15.60;1.40
316;DHT22;14128;48.686;9.738;2023-08-17T02:53:51;15.70;1.40
316;DHT22;14128;48.686;9.738;2023-08-17T02:56:18;15.70;1.40
316;DHT22;14128;48.686;9.738;2023-08-17T02:58:45;15.60;1.40
316;DHT22;14128;48.686;9.738;2023-08-17T03:01:12;15.70;1.40
316;DHT22;14128;48.686;9.738;2023-08-17T03:03:39;15.70;1.40
316;DHT22;14128;48.686;9.738;2023-08-17T03:06:08;15.70;1.40
316;DHT22;14128;48.686;9.738;2023-08-17T03:08:34;15.60;1.40
316;DHT22;14128;48.686;9.738;2023-08-17T03:11:01;15.60;1.40
316;DHT22;14128;48.686;9.738;2023-08-17T03:13:28;15.70;1.40
316;DHT22;14128;48.686;9.738;2023-08-17T03:15:55;15.60;1.40
316;DHT22;14128;48.686;9.738;2023-08-17T03:18:22;15.60;1.40
316;DHT22;14128;48.686;9.738;2023-08-17T03:20:48;15.50;1.40
316;DHT22;14128;48.686;9.738;2023-08-17T03:23:17;15.50;1.40
316;DHT22;14128;48.686;9.738;2023-08-17T03:25:44;15.50;1.40
316;DHT22;14128;48.686;9.738;2023-08-17T03:28:11;15.50;1.40
316;DHT22;14128;48.686;9.738;2023-08-17T03:30:38;15.50;1.40
316;DHT22;14128;48.686;9.738;2023-08-17T03:33:05;15.50;1.40
316;DHT22;14128;48.686;9.738;2023-08-17T03:35:32;15.40;1.40
316;DHT22;14128;48.686;9.738;2023-08-17T03:37:59;15.40;1.40
316;DHT22;14128;48.686;9.738;2023-08-17T03:40:27;15.40;1.40
316;DHT22;14128;48.686;9.738;2023-08-17T03:42:53;15.40;1.40
316;DHT22;14128;48.686;9.738;2023-08-17T03:45:20;15.40;1.40
316;DHT22;14128;48.686;9.738;2023-08-17T03:47:47;15.40;1.40
316;DHT22;14128;48.686;9.738;2023-08-17T03:50:14;15.40;1.40
316;DHT22;14128;48.686;9.738;2023-08-17T03:52:41;15.30;1.40
316;DHT22;14128;48.686;9.738;2023-08-17T03:55:09;15.30;1.40
316;DHT22;14128;48.686;9.738;2023-08-17T03:57:37;15.30;1.40
316;DHT22;14128;48.686;9.738;2023-08-17T04:00:05;15.30;1.40
316;DHT22;14128;48.686;9.738;2023-08-17T04:02:32;15.30;1.40
316;DHT22;14128;48.686;9.738;2023-08-17T04:04:59;15.20;1.40
316;DHT22;14128;48.686;9.738;2023-08-17T04:07:26;15.20;1.40
316;DHT22;14128;48.686;9.738;2023-08-17T04:09:53;15.20;1.40
316;DHT22;14128;48.686;9.738;2023-08-17T04:12:20;15.30;1.40
316;DHT22;14128;48.686;9.738;2023-08-17T04:14:48;15.30;1.40
316;DHT22;14128;48.686;9.738;2023-08-17T04:17:15;15.20;1.40
316;DHT22;14128;48.686;9.738;2023-08-17T04:19:42;15.30;1.40
316;DHT22;14128;48.686;9.738;2023-08-17T04:22:08;15.30;1.40
316;DHT22;14128;48.686;9.738;2023-08-17T04:24:35;15.20;1.40
316;DHT22;14128;48.686;9.738;2023-08-17T04:27:03;15.30;1.40
316;DHT22;14128;48.686;9.738;2023-08-17T04:29:30;15.30;1.40
316;DHT22;14128;48.686;9.738;2023-08-17T04:31:58;15.30;1.40
316;DHT22;14128;48.686;9.738;2023-08-17T04:34:25;15.30;1.40
316;DHT22;14128;48.686;9.738;2023-08-17T04:36:52;15.30;1.40
316;DHT22;14128;48.686;9.738;2023-08-17T04:39:19;15.30;1.40
316;DHT22;14128;48.686;9.738;2023-08-17T04:41:46;15.40;1.40
316;DHT22;14128;48.686;9.738;2023-08-17T04:44:13;15.40;1.40
316;DHT22;14128;48.686;9.738;2023-08-17T04:46:40;15.50;1.40
316;DHT22;14128;48.686;9.738;2023-08-17T04:49:08;15.40;1.40
316;DHT22;14128;48.686;9.738;2023-08-17T04:51:35;15.50;1.40
316;DHT22;14128;48.686;9.738;2023-08-17T04:54:02;15.50;1.40
316;DHT22;14128;48.686;9.738;2023-08-17T04:56:29;15.50;1.40
316;DHT22;14128;48.686;9.738;2023-08-17T04:58:56;15.60;1.40
316;DHT22;14128;48.686;9.738;2023-08-17T05:01:23;15.60;1.40
316;DHT22;14128;48.686;9.738;2023-08-17T05:03:50;15.70;1.40
316;DHT22;14128;48.686;9.738;2023-08-17T05:06:18;15.80;1.40
316;DHT22;14128;48.686;9.738;2023-08-17T05:08:45;15.80;1.40
316;DHT22;14128;48.686;9.738;2023-08-17T05:11:12;15.90;1.40
316;DHT22;14128;48.686;9.738;2023-08-17T05:13:39;15.90;1.40
316;DHT22;14128;48.686;9.738;2023-08-17T05:16:06;16.00;1.40
316;DHT22;14128;48.686;9.738;2023-08-17T05:18:33;16.00;1.40
316;DHT22;14128;48.686;9.738;2023-08-17T05:20:59;16.10;1.40
316;DHT22;14128;48.686;9.738;2023-08-17T05:23:28;16.10;1.40
316;DHT22;14128;48.686;9.738;2023-08-17T05:25:55;16.20;1.40
316;DHT22;14128;48.686;9.738;2023-08-17T05:28:22;16.20;1.40
316;DHT22;14128;48.686;9.738;2023-08-17T05:30:49;16.30;1.40
316;DHT22;14128;48.686;9.738;2023-08-17T05:33:15;16.40;1.40
316;DHT22;14128;48.686;9.738;2023-08-17T05:35:42;16.50;1.40
316;DHT22;14128;48.686;9.738;2023-08-17T05:38:09;16.60;1.40
316;DHT22;14128;48.686;9.738;2023-08-17T05:40:37;16.70;1.40
316;DHT22;14128;48.686;9.738;2023-08-17T05:43:04;16.80;1.40
316;DHT22;14128;48.686;9.738;2023-08-17T05:45:31;16.80;1.40
316;DHT22;14128;48.686;9.738;2023-08-17T05:48:02;16.90;1.40
316;DHT22;14128;48.686;9.738;2023-08-17T05:50:29;17.00;1.40
316;DHT22;14128;48.686;9.738;2023-08-17T05:52:56;17.10;1.40
316;DHT22;14128;48.686;9.738;2023-08-17T05:55:23;17.10;1.40
316;DHT22;14128;48.686;9.738;2023-08-17T05:57:51;17.20;1.40
316;DHT22;14128;48.686;9.738;2023-08-17T06:00:18;17.30;1.40
316;DHT22;14128;48.686;9.738;2023-08-17T06:02:45;17.40;1.40
316;DHT22;14128;48.686;9.738;2023-08-17T06:05:15;17.50;1.40
316;DHT22;14128;48.686;9.738;2023-08-17T06:07:42;17.60;1.40
316;DHT22;14128;48.686;9.738;2023-08-17T06:10:10;17.70;1.40
316;DHT22;14128;48.686;9.738;2023-08-17T06:12:37;17.80;1.40
316;DHT22;14128;48.686;9.738;2023-08-17T06:15:06;18.00;1.40
316;DHT22;14128;48.686;9.738;2023-08-17T06:17:33;18.10;1.40
316;DHT22;14128;48.686;9.738;2023-08-17T06:20:00;18.20;1.40
316;DHT22;14128;48.686;9.738;2023-08-17T06:22:28;18.40;1.40
316;DHT22;14128;48.686;9.738;2023-08-17T06:24:55;18.50;1.40
316;DHT22;14128;48.686;9.738;2023-08-17T06:27:22;18.70;1.40
316;DHT22;14128;48.686;9.738;2023-08-17T06:29:49;18.90;1.40
316;DHT22;14128;48.686;9.738;2023-08-17T06:32:17;19.00;1.40
316;DHT22;14128;48.686;9.738;2023-08-17T06:34:44;19.10;1.40
316;DHT22;14128;48.686;9.738;2023-08-17T06:37:12;19.30;1.40
316;DHT22;14128;48.686;9.738;2023-08-17T06:39:38;19.40;1.40
316;DHT22;14128;48.686;9.738;2023-08-17T06:42:05;19.60;1.40
316;DHT22;14128;48.686;9.738;2023-08-17T06:44:32;19.70;1.40
316;DHT22;14128;48.686;9.738;2023-08-17T06:46:59;19.80;1.40
316;DHT22;14128;48.686;9.738;2023-08-17T06:49:27;19.90;1.40
316;DHT22;14128;48.686;9.738;2023-08-17T06:51:54;20.00;1.40
316;DHT22;14128;48.686;9.738;2023-08-17T06:54:21;20.10;1.40
316;DHT22;14128;48.686;9.738;2023-08-17T06:56:48;20.30;1.40
316;DHT22;14128;48.686;9.738;2023-08-17T06:59:15;20.40;1.40
316;DHT22;14128;48.686;9.738;2023-08-17T07:01:42;20.60;1.40
316;DHT22;14128;48.686;9.738;2023-08-17T07:04:09;20.60;1.40
316;DHT22;14128;48.686;9.738;2023-08-17T07:06:37;20.80;1.40
316;DHT22;14128;48.686;9.738;2023-08-17T07:09:04;20.80;1.40
316;DHT22;14128;48.686;9.738;2023-08-17T07:11:31;21.00;1.40
316;DHT22;14128;48.686;9.738;2023-08-17T07:13:58;21.20;1.40
316;DHT22;14128;48.686;9.738;2023-08-17T07:16:25;21.30;1.40
316;DHT22;14128;48.686;9.738;2023-08-17T07:18:52;21.30;1.40
316;DHT22;14128;48.686;9.738;2023-08-17T07:21:19;21.40;1.40
316;DHT22;14128;48.686;9.738;2023-08-17T07:23:47;21.50;1.40
316;DHT22;14128;48.686;9.738;2023-08-17T07:26:14;21.60;1.40
316;DHT22;14128;48.686;9.738;2023-08-17T07:28:41;21.70;1.40
316;DHT22;14128;48.686;9.738;2023-08-17T07:31:08;21.80;1.40
316;DHT22;14128;48.686;9.738;2023-08-17T07:33:34;21.90;1.40
316;DHT22;14128;48.686;9.738;2023-08-17T07:36:01;21.90;1.40
316;DHT22;14128;48.686;9.738;2023-08-17T07:38:28;21.90;1.40
316;DHT22;14128;48.686;9.738;2023-08-17T07:40:57;21.90;1.40
316;DHT22;14128;48.686;9.738;2023-08-17T07:43:24;22.00;1.40
316;DHT22;14128;48.686;9.738;2023-08-17T07:45:54;22.00;1.40
316;DHT22;14128;48.686;9.738;2023-08-17T07:48:21;22.00;1.40
316;DHT22;14128;48.686;9.738;2023-08-17T07:50:49;22.00;1.40
316;DHT22;14128;48.686;9.738;2023-08-17T07:53:16;21.90;1.40
316;DHT22;14128;48.686;9.738;2023-08-17T07:55:43;22.00;1.40
316;DHT22;14128;48.686;9.738;2023-08-17T07:58:11;22.10;1.40
316;DHT22;14128;48.686;9.738;2023-08-17T08:00:38;22.20;1.40
316;DHT22;14128;48.686;9.738;2023-08-17T08:03:05;22.40;1.40
316;DHT22;14128;48.686;9.738;2023-08-17T08:05:32;22.50;1.40
316;DHT22;14128;48.686;9.738;2023-08-17T08:07:59;22.60;1.40
316;DHT22;14128;48.686;9.738;2023-08-17T08:10:27;22.70;1.40
316;DHT22;14128;48.686;9.738;2023-08-17T08:12:54;22.80;1.40
316;DHT22;14128;48.686;9.738;2023-08-17T08:15:23;22.90;1.40
316;DHT22;14128;48.686;9.738;2023-08-17T08:17:49;23.00;1.40
316;DHT22;14128;48.686;9.738;2023-08-17T08:20:16;23.10;1.40
316;DHT22;14128;48.686;9.738;2023-08-17T08:22:43;23.10;1.40
316;DHT22;14128;48.686;9.738;2023-08-17T08:25:10;23.20;1.40
316;DHT22;14128;48.686;9.738;2023-08-17T08:27:37;23.30;1.40
316;DHT22;14128;48.686;9.738;2023-08-17T08:30:05;23.20;1.40
316;DHT22;14128;48.686;9.738;2023-08-17T08:32:34;23.30;1.40
316;DHT22;14128;48.686;9.738;2023-08-17T08:35:01;23.40;1.40
316;DHT22;14128;48.686;9.738;2023-08-17T08:37:28;23.50;1.40
316;DHT22;14128;48.686;9.738;2023-08-17T08:39:55;23.60;1.40
316;DHT22;14128;48.686;9.738;2023-08-17T08:42:25;23.80;1.40
316;DHT22;14128;48.686;9.738;2023-08-17T08:44:52;23.90;1.40
316;DHT22;14128;48.686;9.738;2023-08-17T08:47:19;24.00;1.40
316;DHT22;14128;48.686;9.738;2023-08-17T08:49:54;24.20;1.40
316;DHT22;14128;48.686;9.738;2023-08-17T08:52:29;24.20;1.40
316;DHT22;14128;48.686;9.738;2023-08-17T08:54:58;24.30;1.40
316;DHT22;14128;48.686;9.738;2023-08-17T08:57:29;24.30;1.40
316;DHT22;14128;48.686;9.738;2023-08-17T08:59:57;24.40;1.40
316;DHT22;14128;48.686;9.738;2023-08-17T09:02:25;24.40;1.40
316;DHT22;14128;48.686;9.738;2023-08-17T09:04:54;24.50;1.40
316;DHT22;14128;48.686;9.738;2023-08-17T09:07:22;24.50;1.40
316;DHT22;14128;48.686;9.738;2023-08-17T09:09:50;24.60;1.40
316;DHT22;14128;48.686;9.738;2023-08-17T09:12:17;24.60;1.40
316;DHT22;14128;48.686;9.738;2023-08-17T09:14:44;24.70;1.40
316;DHT22;14128;48.686;9.738;2023-08-17T09:17:11;24.80;1.40
316;DHT22;14128;48.686;9.738;2023-08-17T09:19:37;24.80;1.40
316;DHT22;14128;48.686;9.738;2023-08-17T09:22:06;24.90;1.40
316;DHT22;14128;48.686;9.738;2023-08-17T09:24:36;24.90;1.40
316;DHT22;14128;48.686;9.738;2023-08-17T09:27:03;24.80;1.40
316;DHT22;14128;48.686;9.738;2023-08-17T09:29:31;25.00;1.40
316;DHT22;14128;48.686;9.738;2023-08-17T09:32:04;25.10;1.40
316;DHT22;14128;48.686;9.738;2023-08-17T09:34:32;25.20;1.40
316;DHT22;14128;48.686;9.738;2023-08-17T09:37:02;25.30;1.40
316;DHT22;14128;48.686;9.738;2023-08-17T09:39:31;25.40;1.40
316;DHT22;14128;48.686;9.738;2023-08-17T09:41:59;25.40;1.40
316;DHT22;14128;48.686;9.738;2023-08-17T09:44:26;25.50;1.40
316;DHT22;14128;48.686;9.738;2023-08-17T09:46:55;25.60;1.40
316;DHT22;14128;48.686;9.738;2023-08-17T09:49:23;25.50;1.40
316;DHT22;14128;48.686;9.738;2023-08-17T09:51:50;25.50;1.40
316;DHT22;14128;48.686;9.738;2023-08-17T09:54:21;25.60;1.40
316;DHT22;14128;48.686;9.738;2023-08-17T09:56:50;25.60;1.40
316;DHT22;14128;48.686;9.738;2023-08-17T09:59:18;25.60;1.40
316;DHT22;14128;48.686;9.738;2023-08-17T10:01:47;25.60;1.40
316;DHT22;14128;48.686;9.738;2023-08-17T10:04:18;25.70;1.40
316;DHT22;14128;48.686;9.738;2023-08-17T10:06:48;25.80;1.40
316;DHT22;14128;48.686;9.738;2023-08-17T10:09:18;25.90;1.40
316;DHT22;14128;48.686;9.738;2023-08-17T10:11:47;26.00;1.40
316;DHT22;14128;48.686;9.738;2023-08-17T10:14:21;26.20;1.40
316;DHT22;14128;48.686;9.738;2023-08-17T10:16:53;26.20;1.40
316;DHT22;14128;48.686;9.738;2023-08-17T10:19:30;26.30;1.40
316;DHT22;14128;48.686;9.738;2023-08-17T10:22:03;26.40;1.40
316;DHT22;14128;48.686;9.738;2023-08-17T10:24:33;26.40;1.40
316;DHT22;14128;48.686;9.738;2023-08-17T10:27:02;26.50;1.40
316;DHT22;14128;48.686;9.738;2023-08-17T10:29:31;26.60;1.40
316;DHT22;14128;48.686;9.738;2023-08-17T10:32:00;26.70;1.40
316;DHT22;14128;48.686;9.738;2023-08-17T10:34:28;26.90;1.40
316;DHT22;14128;48.686;9.738;2023-08-17T10:36:55;27.00;1.40
316;DHT22;14128;48.686;9.738;2023-08-17T10:39:24;27.20;1.40
316;DHT22;14128;48.686;9.738;2023-08-17T10:41:52;27.50;1.40
316;DHT22;14128;48.686;9.738;2023-08-17T10:44:38;27.90;1.40
316;DHT22;14128;48.686;9.738;2023-08-17T10:47:22;28.30;1.40
316;DHT22;14128;48.686;9.738;2023-08-17T10:49:50;28.70;1.40
316;DHT22;14128;48.686;9.738;2023-08-17T10:52:25;28.80;1.40
316;DHT22;14128;48.686;9.738;2023-08-17T10:54:53;29.10;1.40
316;DHT22;14128;48.686;9.738;2023-08-17T10:57:32;29.30;1.40
316;DHT22;14128;48.686;9.738;2023-08-17T11:00:13;29.40;1.40
316;DHT22;14128;48.686;9.738;2023-08-17T11:02:42;29.40;1.40
316;DHT22;14128;48.686;9.738;2023-08-17T11:05:10;29.40;1.40
316;DHT22;14128;48.686;9.738;2023-08-17T11:07:42;29.50;1.40
316;DHT22;14128;48.686;9.738;2023-08-17T11:10:26;29.70;1.40
316;DHT22;14128;48.686;9.738;2023-08-17T11:12:53;29.80;1.40
316;DHT22;14128;48.686;9.738;2023-08-17T11:15:24;30.00;1.40
316;DHT22;14128;48.686;9.738;2023-08-17T11:17:51;30.20;1.40
316;DHT22;14128;48.686;9.738;2023-08-17T11:20:18;30.10;1.40
316;DHT22;14128;48.686;9.738;2023-08-17T11:22:46;29.90;1.40
316;DHT22;14128;48.686;9.738;2023-08-17T11:25:13;30.00;1.40
316;DHT22;14128;48.686;9.738;2023-08-17T11:27:40;30.00;1.40
316;DHT22;14128;48.686;9.738;2023-08-17T11:30:08;30.10;1.40
316;DHT22;14128;48.686;9.738;2023-08-17T11:32:36;30.30;1.40
316;DHT22;14128;48.686;9.738;2023-08-17T11:35:03;30.30;1.40
316;DHT22;14128;48.686;9.738;2023-08-17T11:37:30;30.20;1.40
316;DHT22;14128;48.686;9.738;2023-08-17T11:39:58;30.50;1.40
316;DHT22;14128;48.686;9.738;2023-08-17T11:42:25;30.80;1.40
316;DHT22;14128;48.686;9.738;2023-08-17T11:44:52;30.90;1.40
316;DHT22;14128;48.686;9.738;2023-08-17T11:47:19;31.00;1.40
316;DHT22;14128;48.686;9.738;2023-08-17T11:49:49;31.00;1.40
316;DHT22;14128;48.686;9.738;2023-08-17T11:52:16;30.90;1.40
316;DHT22;14128;48.686;9.738;2023-08-17T11:54:43;31.20;1.40
316;DHT22;14128;48.686;9.738;2023-08-17T11:57:10;31.20;1.40
316;DHT22;14128;48.686;9.738;2023-08-17T11:59:36;31.30;1.40
316;DHT22;14128;48.686;9.738;2023-08-17T12:02:03;31.40;1.40
316;DHT22;14128;48.686;9.738;2023-08-17T12:04:32;31.60;1.40
316;DHT22;14128;48.686;9.738;2023-08-17T12:07:00;31.50;1.40
316;DHT22;14128;48.686;9.738;2023-08-17T12:09:27;31.60;1.40
316;DHT22;14128;48.686;9.738;2023-08-17T12:11:58;31.80;1.40
316;DHT22;14128;48.686;9.738;2023-08-17T12:14:26;31.90;1.40
316;DHT22;14128;48.686;9.738;2023-08-17T12:16:54;31.90;1.40
316;DHT22;14128;48.686;9.738;2023-08-17T12:19:22;31.80;1.40
316;DHT22;14128;48.686;9.738;2023-08-17T12:21:51;31.90;1.40
316;DHT22;14128;48.686;9.738;2023-08-17T12:24:19;32.00;1.40
316;DHT22;14128;48.686;9.738;2023-08-17T12:26:46;32.20;1.40
316;DHT22;14128;48.686;9.738;2023-08-17T12:29:13;32.10;1.40
316;DHT22;14128;48.686;9.738;2023-08-17T12:31:40;32.10;1.40
316;DHT22;14128;48.686;9.738;2023-08-17T12:34:07;31.80;1.40
316;DHT22;14128;48.686;9.738;2023-08-17T12:36:34;31.20;1.40
316;DHT22;14128;48.686;9.738;2023-08-17T12:39:03;30.90;1.40
316;DHT22;14128;48.686;9.738;2023-08-17T12:41:32;30.40;1.40
316;DHT22;14128;48.686;9.738;2023-08-17T12:43:59;30.10;1.40
316;DHT22;14128;48.686;9.738;2023-08-17T12:46:26;29.70;1.40
316;DHT22;14128;48.686;9.738;2023-08-17T12:48:53;29.40;1.40
316;DHT22;14128;48.686;9.738;2023-08-17T12:51:20;29.10;1.40
316;DHT22;14128;48.686;9.738;2023-08-17T12:53:47;28.80;1.40
316;DHT22;14128;48.686;9.738;2023-08-17T12:56:14;28.50;1.40
316;DHT22;14128;48.686;9.738;2023-08-17T12:58:42;28.20;1.40
316;DHT22;14128;48.686;9.738;2023-08-17T13:01:09;27.90;1.40
316;DHT22;14128;48.686;9.738;2023-08-17T13:03:36;27.60;1.40
316;DHT22;14128;48.686;9.738;2023-08-17T13:06:03;27.50;1.40
316;DHT22;14128;48.686;9.738;2023-08-17T13:08:29;27.30;1.40
316;DHT22;14128;48.686;9.738;2023-08-17T13:10:56;27.10;1.40
316;DHT22;14128;48.686;9.738;2023-08-17T13:13:23;26.90;1.40
316;DHT22;14128;48.686;9.738;2023-08-17T13:15:51;26.60;1.40
316;DHT22;14128;48.686;9.738;2023-08-17T13:18:18;26.50;1.40
316;DHT22;14128;48.686;9.738;2023-08-17T13:20:45;26.20;1.40
316;DHT22;14128;48.686;9.738;2023-08-17T13:23:12;26.00;1.40
316;DHT22;14128;48.686;9.738;2023-08-17T13:25:39;25.90;1.40
316;DHT22;14128;48.686;9.738;2023-08-17T13:28:06;25.70;1.40
316;DHT22;14128;48.686;9.738;2023-08-17T13:30:33;25.50;1.40
316;DHT22;14128;48.686;9.738;2023-08-17T13:33:01;25.40;1.40
316;DHT22;14128;48.686;9.738;2023-08-17T13:35:28;25.30;1.40
316;DHT22;14128;48.686;9.738;2023-08-17T13:37:55;25.20;1.40
316;DHT22;14128;48.686;9.738;2023-08-17T13:40:23;25.10;1.40
316;DHT22;14128;48.686;9.738;2023-08-17T13:42:50;25.10;1.40
316;DHT22;14128;48.686;9.738;2023-08-17T13:45:17;25.10;1.40
316;DHT22;14128;48.686;9.738;2023-08-17T13:47:44;25.00;1.40
316;DHT22;14128;48.686;9.738;2023-08-17T13:50:12;25.00;1.40
316;DHT22;14128;48.686;9.738;2023-08-17T13:52:39;25.00;1.40
316;DHT22;14128;48.686;9.738;2023-08-17T13:55:06;24.90;1.40
316;DHT22;14128;48.686;9.738;2023-08-17T13:57:34;24.80;1.40
316;DHT22;14128;48.686;9.738;2023-08-17T14:00:01;24.80;1.40
316;DHT22;14128;48.686;9.738;2023-08-17T14:02:29;24.80;1.40
316;DHT22;14128;48.686;9.738;2023-08-17T14:04:57;24.80;1.40
316;DHT22;14128;48.686;9.738;2023-08-17T14:07:25;24.70;1.40
316;DHT22;14128;48.686;9.738;2023-08-17T14:09:52;24.70;1.40
316;DHT22;14128;48.686;9.738;2023-08-17T14:12:19;24.50;1.40
316;DHT22;14128;48.686;9.738;2023-08-17T14:14:45;24.30;1.40
316;DHT22;14128;48.686;9.738;2023-08-17T14:17:12;24.20;1.40
316;DHT22;14128;48.686;9.738;2023-08-17T14:19:39;24.00;1.40
316;DHT22;14128;48.686;9.738;2023-08-17T14:22:08;24.00;1.40
316;DHT22;14128;48.686;9.738;2023-08-17T14:24:36;23.90;1.40
316;DHT22;14128;48.686;9.738;2023-08-17T14:27:03;23.90;1.40
316;DHT22;14128;48.686;9.738;2023-08-17T14:29:30;23.80;1.40
316;DHT22;14128;48.686;9.738;2023-08-17T14:31:57;23.80;1.40
316;DHT22;14128;48.686;9.738;2023-08-17T14:34:24;23.70;1.40
316;DHT22;14128;48.686;9.738;2023-08-17T14:36:51;23.60;1.40
316;DHT22;14128;48.686;9.738;2023-08-17T14:39:17;23.60;1.40
316;DHT22;14128;48.686;9.738;2023-08-17T14:41:46;23.50;1.40
316;DHT22;14128;48.686;9.738;2023-08-17T14:44:12;23.30;1.40
316;DHT22;14128;48.686;9.738;2023-08-17T14:46:39;23.30;1.40
316;DHT22;14128;48.686;9.738;2023-08-17T14:49:07;23.20;1.40
316;DHT22;14128;48.686;9.738;2023-08-17T14:51:37;23.10;1.40
316;DHT22;14128;48.686;9.738;2023-08-17T14:54:04;23.00;1.40
316;DHT22;14128;48.686;9.738;2023-08-17T14:56:31;22.90;1.40
316;DHT22;14128;48.686;9.738;2023-08-17T14:59:00;22.80;1.40
316;DHT22;14128;48.686;9.738;2023-08-17T15:01:27;22.70;1.40
316;DHT22;14128;48.686;9.738;2023-08-17T15:03:55;22.60;1.40
316;DHT22;14128;48.686;9.738;2023-08-17T15:06:22;22.50;1.40
316;DHT22;14128;48.686;9.738;2023-08-17T15:08:49;22.40;1.40
316;DHT22;14128;48.686;9.738;2023-08-17T15:11:16;22.30;1.40
316;DHT22;14128;48.686;9.738;2023-08-17T15:13:43;22.20;1.40
316;DHT22;14128;48.686;9.738;2023-08-17T15:16:12;22.10;1.40
316;DHT22;14128;48.686;9.738;2023-08-17T15:18:38;22.00;1.40
316;DHT22;14128;48.686;9.738;2023-08-17T15:21:05;22.00;1.40
316;DHT22;14128;48.686;9.738;2023-08-17T15:23:33;21.90;1.40
316;DHT22;14128;48.686;9.738;2023-08-17T15:25:59;21.90;1.40
316;DHT22;14128;48.686;9.738;2023-08-17T15:28:26;21.90;1.40
316;DHT22;14128;48.686;9.738;2023-08-17T15:31:00;21.80;1.40
316;DHT22;14128;48.686;9.738;2023-08-17T15:33:29;21.70;1.40
316;DHT22;14128;48.686;9.738;2023-08-17T15:35:56;21.70;1.40
316;DHT22;14128;48.686;9.738;2023-08-17T15:38:23;21.70;1.40
316;DHT22;14128;48.686;9.738;2023-08-17T15:40:50;21.60;1.40
316;DHT22;14128;48.686;9.738;2023-08-17T15:43:17;21.60;1.40
316;DHT22;14128;48.686;9.738;2023-08-17T15:45:44;21.60;1.40
316;DHT22;14128;48.686;9.738;2023-08-17T15:48:11;21.60;1.40
316;DHT22;14128;48.686;9.738;2023-08-17T15:50:39;21.60;1.40
316;DHT22;14128;48.686;9.738;2023-08-17T15:53:06;21.60;1.40
316;DHT22;14128;48.686;9.738;2023-08-17T15:55:34;21.70;1.40
316;DHT22;14128;48.686;9.738;2023-08-17T15:58:01;21.70;1.40
316;DHT22;14128;48.686;9.738;2023-08-17T16:00:28;21.70;1.40
316;DHT22;14128;48.686;9.738;2023-08-17T16:02:55;21.70;1.40
316;DHT22;14128;48.686;9.738;2023-08-17T16:05:22;21.80;1.40
316;DHT22;14128;48.686;9.738;2023-08-17T16:07:51;21.80;1.40
316;DHT22;14128;48.686;9.738;2023-08-17T16:10:18;21.80;1.40
316;DHT22;14128;48.686;9.738;2023-08-17T16:12:44;21.80;1.40
316;DHT22;14128;48.686;9.738;2023-08-17T16:15:11;21.90;1.40
316;DHT22;14128;48.686;9.738;2023-08-17T16:17:38;21.90;1.40
316;DHT22;14128;48.686;9.738;2023-08-17T16:20:06;22.00;1.40